sensor_id;sensor_type;location;lat;lon;timestamp;temperature;humidity
11700;DHT22;5906;51.660;6.674;2023-03-19T00:00:22;10.70;99.90
11700;DHT22;5906;51.660;6.674;2023-03-19T00:02:49;10.80;99.90
11700;DHT22;5906;51.660;6.674;2023-03-19T00:05:18;10.70;99.90
11700;DHT22;5906;51.660;6.674;2023-03-19T00:07:45;10.80;99.90
11700;DHT22;5906;51.660;6.674;2023-03-19T00:10:12;10.70;99.90
11700;DHT22;5906;51.660;6.674;2023-03-19T00:12:39;10.70;99.90
11700;DHT22;5906;51.660;6.674;2023-03-19T00:15:07;10.70;99.90
11700;DHT22;5906;51.660;6.674;2023-03-19T00:17:37;10.60;99.90
11700;DHT22;5906;51.660;6.674;2023-03-19T00:20:05;10.70;99.90
11700;DHT22;5906;51.660;6.674;2023-03-19T00:22:32;10.70;99.90
11700;DHT22;5906;51.660;6.674;2023-03-19T00:24:59;10.60;99.90
11700;DHT22;5906;51.660;6.674;2023-03-19T00:27:27;10.60;99.90
11700;DHT22;5906;51.660;6.674;2023-03-19T00:29:54;10.60;99.90
11700;DHT22;5906;51.660;6.674;2023-03-19T00:32:21;10.60;99.90
11700;DHT22;5906;51.660;6.674;2023-03-19T00:34:48;10.50;99.90
11700;DHT22;5906;51.660;6.674;2023-03-19T00:37:15;10.50;99.90
11700;DHT22;5906;51.660;6.674;2023-03-19T00:39:43;10.50;99.90
11700;DHT22;5906;51.660;6.674;2023-03-19T00:42:10;10.40;99.90
11700;DHT22;5906;51.660;6.674;2023-03-19T00:44:37;10.40;99.90
11700;DHT22;5906;51.660;6.674;2023-03-19T00:47:04;10.30;99.90
11700;DHT22;5906;51.660;6.674;2023-03-19T00:49:33;10.30;99.90
11700;DHT22;5906;51.660;6.674;2023-03-19T00:52:00;10.20;99.90
11700;DHT22;5906;51.660;6.674;2023-03-19T00:54:27;10.20;99.90
11700;DHT22;5906;51.660;6.674;2023-03-19T00:56:54;10.10;99.90
11700;DHT22;5906;51.660;6.674;2023-03-19T00:59:20;10.10;99.90
11700;DHT22;5906;51.660;6.674;2023-03-19T01:01:47;10.00;99.90
11700;DHT22;5906;51.660;6.674;2023-03-19T01:04:14;10.00;99.90
11700;DHT22;5906;51.660;6.674;2023-03-19T01:06:41;10.00;99.90
11700;DHT22;5906;51.660;6.674;2023-03-19T01:09:09;10.00;99.90
11700;DHT22;5906;51.660;6.674;2023-03-19T01:11:36;10.00;99.90
11700;DHT22;5906;51.660;6.674;2023-03-19T01:14:03;10.00;99.90
11700;DHT22;5906;51.660;6.674;2023-03-19T01:16:30;10.00;99.90
11700;DHT22;5906;51.660;6.674;2023-03-19T01:18:57;10.00;99.90
11700;DHT22;5906;51.660;6.674;2023-03-19T01:21:24;10.00;99.90
11700;DHT22;5906;51.660;6.674;2023-03-19T01:23:52;10.00;99.90
11700;DHT22;5906;51.660;6.674;2023-03-19T01:26:19;10.00;99.90
11700;DHT22;5906;51.660;6.674;2023-03-19T01:28:46;10.00;99.90
11700;DHT22;5906;51.660;6.674;2023-03-19T01:31:13;10.00;99.90
11700;DHT22;5906;51.660;6.674;2023-03-19T01:33:40;10.00;99.90
11700;DHT22;5906;51.660;6.674;2023-03-19T01:36:08;10.00;99.90
11700;DHT22;5906;51.660;6.674;2023-03-19T01:38:35;10.00;99.90
11700;DHT22;5906;51.660;6.674;2023-03-19T01:41:02;9.90;99.90
11700;DHT22;5906;51.660;6.674;2023-03-19T01:43:30;9.90;99.90
11700;DHT22;5906;51.660;6.674;2023-03-19T01:46:00;9.90;99.90
11700;DHT22;5906;51.660;6.674;2023-03-19T01:48:50;9.90;99.90
11700;DHT22;5906;51.660;6.674;2023-03-19T01:51:23;9.90;99.90
11700;DHT22;5906;51.660;6.674;2023-03-19T01:54:04;9.90;99.90
11700;DHT22;5906;51.660;6.674;2023-03-19T01:56:35;9.90;99.90
11700;DHT22;5906;51.660;6.674;2023-03-19T01:59:10;10.00;99.90
11700;DHT22;5906;51.660;6.674;2023-03-19T02:01:46;10.00;99.90
11700;DHT22;5906;51.660;6.674;2023-03-19T02:04:15;9.90;99.90
11700;DHT22;5906;51.660;6.674;2023-03-19T02:06:43;10.00;99.90
11700;DHT22;5906;51.660;6.674;2023-03-19T02:09:11;9.90;99.90
11700;DHT22;5906;51.660;6.674;2023-03-19T02:11:40;9.90;99.90
11700;DHT22;5906;51.660;6.674;2023-03-19T02:14:08;9.90;99.90
11700;DHT22;5906;51.660;6.674;2023-03-19T02:16:35;9.90;99.90
11700;DHT22;5906;51.660;6.674;2023-03-19T02:19:03;10.00;99.90
11700;DHT22;5906;51.660;6.674;2023-03-19T02:21:32;10.00;99.90
11700;DHT22;5906;51.660;6.674;2023-03-19T02:26:29;10.00;99.90
11700;DHT22;5906;51.660;6.674;2023-03-19T02:28:56;10.00;99.90
11700;DHT22;5906;51.660;6.674;2023-03-19T02:31:23;10.00;99.90
11700;DHT22;5906;51.660;6.674;2023-03-19T02:36:40;10.10;99.90
11700;DHT22;5906;51.660;6.674;2023-03-19T02:39:15;10.00;99.90
11700;DHT22;5906;51.660;6.674;2023-03-19T02:41:45;10.00;99.90
11700;DHT22;5906;51.660;6.674;2023-03-19T02:44:12;10.10;99.90
11700;DHT22;5906;51.660;6.674;2023-03-19T02:46:39;10.10;99.90
11700;DHT22;5906;51.660;6.674;2023-03-19T02:49:06;10.10;99.90
11700;DHT22;5906;51.660;6.674;2023-03-19T02:51:34;10.10;99.90
11700;DHT22;5906;51.660;6.674;2023-03-19T02:54:03;10.10;99.90
11700;DHT22;5906;51.660;6.674;2023-03-19T02:56:32;10.20;99.90
11700;DHT22;5906;51.660;6.674;2023-03-19T02:58:59;10.20;99.90
11700;DHT22;5906;51.660;6.674;2023-03-19T03:01:26;10.20;99.90
11700;DHT22;5906;51.660;6.674;2023-03-19T03:03:53;10.20;99.90
11700;DHT22;5906;51.660;6.674;2023-03-19T03:06:20;10.20;99.90
11700;DHT22;5906;51.660;6.674;2023-03-19T03:08:47;10.20;99.90
11700;DHT22;5906;51.660;6.674;2023-03-19T03:11:16;10.20;99.90
11700;DHT22;5906;51.660;6.674;2023-03-19T03:13:44;10.20;99.90
11700;DHT22;5906;51.660;6.674;2023-03-19T03:16:12;10.20;99.90
11700;DHT22;5906;51.660;6.674;2023-03-19T03:18:39;10.20;99.90
11700;DHT22;5906;51.660;6.674;2023-03-19T03:21:07;10.20;99.90
11700;DHT22;5906;51.660;6.674;2023-03-19T03:23:35;10.30;99.90
11700;DHT22;5906;51.660;6.674;2023-03-19T03:26:02;10.30;99.90
11700;DHT22;5906;51.660;6.674;2023-03-19T03:28:29;10.40;99.90
11700;DHT22;5906;51.660;6.674;2023-03-19T03:31:00;10.40;99.90
11700;DHT22;5906;51.660;6.674;2023-03-19T03:33:28;10.50;99.90
11700;DHT22;5906;51.660;6.674;2023-03-19T03:35:55;10.50;99.90
11700;DHT22;5906;51.660;6.674;2023-03-19T03:38:22;10.60;99.90
11700;DHT22;5906;51.660;6.674;2023-03-19T03:40:52;10.60;99.90
11700;DHT22;5906;51.660;6.674;2023-03-19T03:43:20;10.60;99.90
11700;DHT22;5906;51.660;6.674;2023-03-19T03:45:47;10.60;99.90
11700;DHT22;5906;51.660;6.674;2023-03-19T03:48:16;10.60;99.90
11700;DHT22;5906;51.660;6.674;2023-03-19T03:50:43;10.60;99.90
11700;DHT22;5906;51.660;6.674;2023-03-19T03:53:10;10.60;99.90
11700;DHT22;5906;51.660;6.674;2023-03-19T03:55:39;10.50;99.90
11700;DHT22;5906;51.660;6.674;2023-03-19T03:58:06;10.50;99.90
11700;DHT22;5906;51.660;6.674;2023-03-19T04:00:33;10.60;99.90
11700;DHT22;5906;51.660;6.674;2023-03-19T04:03:01;10.50;99.90
11700;DHT22;5906;51.660;6.674;2023-03-19T04:05:28;10.50;99.90
11700;DHT22;5906;51.660;6.674;2023-03-19T04:07:55;10.60;99.90
11700;DHT22;5906;51.660;6.674;2023-03-19T04:10:22;10.60;99.90
11700;DHT22;5906;51.660;6.674;2023-03-19T04:12:50;10.60;99.90
11700;DHT22;5906;51.660;6.674;2023-03-19T04:15:17;10.60;99.90
11700;DHT22;5906;51.660;6.674;2023-03-19T04:17:44;10.60;99.90
11700;DHT22;5906;51.660;6.674;2023-03-19T04:20:12;10.60;99.90
11700;DHT22;5906;51.660;6.674;2023-03-19T04:22:39;10.60;99.90
11700;DHT22;5906;51.660;6.674;2023-03-19T04:25:07;10.60;99.90
11700;DHT22;5906;51.660;6.674;2023-03-19T04:27:35;10.70;99.90
11700;DHT22;5906;51.660;6.674;2023-03-19T04:30:03;10.60;99.90
11700;DHT22;5906;51.660;6.674;2023-03-19T04:32:30;10.70;99.90
11700;DHT22;5906;51.660;6.674;2023-03-19T04:34:59;10.70;99.90
11700;DHT22;5906;51.660;6.674;2023-03-19T04:37:26;10.70;99.90
11700;DHT22;5906;51.660;6.674;2023-03-19T04:39:53;10.70;99.90
11700;DHT22;5906;51.660;6.674;2023-03-19T04:42:21;10.70;99.90
11700;DHT22;5906;51.660;6.674;2023-03-19T04:44:48;10.70;99.90
11700;DHT22;5906;51.660;6.674;2023-03-19T04:47:15;10.80;99.90
11700;DHT22;5906;51.660;6.674;2023-03-19T04:49:42;10.80;99.90
11700;DHT22;5906;51.660;6.674;2023-03-19T04:52:09;10.70;99.90
11700;DHT22;5906;51.660;6.674;2023-03-19T04:54:36;10.70;99.90
11700;DHT22;5906;51.660;6.674;2023-03-19T04:57:04;10.80;99.90
11700;DHT22;5906;51.660;6.674;2023-03-19T04:59:31;10.80;99.90
11700;DHT22;5906;51.660;6.674;2023-03-19T05:01:58;10.80;99.90
11700;DHT22;5906;51.660;6.674;2023-03-19T05:04:25;10.80;99.90
11700;DHT22;5906;51.660;6.674;2023-03-19T05:06:52;10.80;99.90
11700;DHT22;5906;51.660;6.674;2023-03-19T05:09:19;10.80;99.90
11700;DHT22;5906;51.660;6.674;2023-03-19T05:11:46;10.80;99.90
11700;DHT22;5906;51.660;6.674;2023-03-19T05:14:13;10.80;99.90
11700;DHT22;5906;51.660;6.674;2023-03-19T05:16:40;10.90;99.90
11700;DHT22;5906;51.660;6.674;2023-03-19T05:19:08;10.90;99.90
11700;DHT22;5906;51.660;6.674;2023-03-19T05:21:36;10.90;99.90
11700;DHT22;5906;51.660;6.674;2023-03-19T05:24:04;11.00;99.90
11700;DHT22;5906;51.660;6.674;2023-03-19T05:26:31;11.00;99.90
11700;DHT22;5906;51.660;6.674;2023-03-19T05:28:58;11.00;99.90
11700;DHT22;5906;51.660;6.674;2023-03-19T05:31:25;11.00;99.90
11700;DHT22;5906;51.660;6.674;2023-03-19T05:33:52;11.00;99.90
11700;DHT22;5906;51.660;6.674;2023-03-19T05:36:19;11.00;99.90
11700;DHT22;5906;51.660;6.674;2023-03-19T05:38:46;11.10;99.90
11700;DHT22;5906;51.660;6.674;2023-03-19T05:41:13;11.00;99.90
11700;DHT22;5906;51.660;6.674;2023-03-19T05:43:40;11.00;99.90
11700;DHT22;5906;51.660;6.674;2023-03-19T05:46:08;11.00;99.90
11700;DHT22;5906;51.660;6.674;2023-03-19T05:48:35;11.00;99.90
11700;DHT22;5906;51.660;6.674;2023-03-19T05:51:03;11.00;99.90
11700;DHT22;5906;51.660;6.674;2023-03-19T05:53:31;11.00;99.90
11700;DHT22;5906;51.660;6.674;2023-03-19T05:55:58;10.90;99.90
11700;DHT22;5906;51.660;6.674;2023-03-19T05:58:25;11.00;99.90
11700;DHT22;5906;51.660;6.674;2023-03-19T06:00:54;11.00;99.90
11700;DHT22;5906;51.660;6.674;2023-03-19T06:03:22;11.00;99.90
11700;DHT22;5906;51.660;6.674;2023-03-19T06:05:51;11.00;99.90
11700;DHT22;5906;51.660;6.674;2023-03-19T06:08:20;10.90;99.90
11700;DHT22;5906;51.660;6.674;2023-03-19T06:10:47;10.90;99.90
11700;DHT22;5906;51.660;6.674;2023-03-19T06:13:14;10.90;99.90
11700;DHT22;5906;51.660;6.674;2023-03-19T06:15:42;10.90;99.90
11700;DHT22;5906;51.660;6.674;2023-03-19T06:18:09;10.90;99.90
11700;DHT22;5906;51.660;6.674;2023-03-19T06:20:36;10.90;99.90
11700;DHT22;5906;51.660;6.674;2023-03-19T06:23:03;10.90;99.90
11700;DHT22;5906;51.660;6.674;2023-03-19T06:25:30;10.90;99.90
11700;DHT22;5906;51.660;6.674;2023-03-19T06:27:57;10.90;99.90
11700;DHT22;5906;51.660;6.674;2023-03-19T06:30:26;10.90;99.90
11700;DHT22;5906;51.660;6.674;2023-03-19T06:32:53;11.00;99.90
11700;DHT22;5906;51.660;6.674;2023-03-19T06:35:20;11.00;99.90
11700;DHT22;5906;51.660;6.674;2023-03-19T06:37:48;11.00;99.90
11700;DHT22;5906;51.660;6.674;2023-03-19T06:40:15;11.00;99.90
11700;DHT22;5906;51.660;6.674;2023-03-19T06:42:46;11.00;99.90
11700;DHT22;5906;51.660;6.674;2023-03-19T06:45:15;11.10;99.90
11700;DHT22;5906;51.660;6.674;2023-03-19T06:47:45;11.10;99.90
11700;DHT22;5906;51.660;6.674;2023-03-19T06:50:14;11.10;99.90
11700;DHT22;5906;51.660;6.674;2023-03-19T06:52:42;11.10;99.90
11700;DHT22;5906;51.660;6.674;2023-03-19T06:55:10;11.10;99.90
11700;DHT22;5906;51.660;6.674;2023-03-19T06:57:38;11.10;99.90
11700;DHT22;5906;51.660;6.674;2023-03-19T07:00:07;11.10;99.90
11700;DHT22;5906;51.660;6.674;2023-03-19T07:02:37;11.20;99.90
11700;DHT22;5906;51.660;6.674;2023-03-19T07:05:05;11.20;99.90
11700;DHT22;5906;51.660;6.674;2023-03-19T07:07:32;11.20;99.90
11700;DHT22;5906;51.660;6.674;2023-03-19T07:09:59;11.20;99.90
11700;DHT22;5906;51.660;6.674;2023-03-19T07:12:27;11.20;99.90
11700;DHT22;5906;51.660;6.674;2023-03-19T07:14:55;11.30;99.90
11700;DHT22;5906;51.660;6.674;2023-03-19T07:17:24;11.20;99.90
11700;DHT22;5906;51.660;6.674;2023-03-19T07:19:51;11.30;99.90
11700;DHT22;5906;51.660;6.674;2023-03-19T07:22:18;11.30;99.90
11700;DHT22;5906;51.660;6.674;2023-03-19T07:24:46;11.40;99.90
11700;DHT22;5906;51.660;6.674;2023-03-19T07:27:13;11.30;99.90
11700;DHT22;5906;51.660;6.674;2023-03-19T07:29:40;11.40;99.90
11700;DHT22;5906;51.660;6.674;2023-03-19T07:32:09;11.50;99.90
11700;DHT22;5906;51.660;6.674;2023-03-19T07:34:36;11.50;99.90
11700;DHT22;5906;51.660;6.674;2023-03-19T07:37:04;11.60;99.90
11700;DHT22;5906;51.660;6.674;2023-03-19T07:39:31;11.60;99.90
11700;DHT22;5906;51.660;6.674;2023-03-19T07:41:59;11.60;99.90
11700;DHT22;5906;51.660;6.674;2023-03-19T07:44:26;11.50;99.90
11700;DHT22;5906;51.660;6.674;2023-03-19T07:46:53;11.50;99.90
11700;DHT22;5906;51.660;6.674;2023-03-19T07:49:21;11.40;99.90
11700;DHT22;5906;51.660;6.674;2023-03-19T07:51:48;11.50;99.90
11700;DHT22;5906;51.660;6.674;2023-03-19T07:54:16;11.50;99.90
11700;DHT22;5906;51.660;6.674;2023-03-19T07:56:43;11.50;99.90
11700;DHT22;5906;51.660;6.674;2023-03-19T07:59:10;11.60;99.90
11700;DHT22;5906;51.660;6.674;2023-03-19T08:01:37;11.70;99.90
11700;DHT22;5906;51.660;6.674;2023-03-19T08:04:05;11.80;99.90
11700;DHT22;5906;51.660;6.674;2023-03-19T08:06:32;11.90;99.90
11700;DHT22;5906;51.660;6.674;2023-03-19T08:08:59;12.10;99.90
11700;DHT22;5906;51.660;6.674;2023-03-19T08:11:26;12.20;99.90
11700;DHT22;5906;51.660;6.674;2023-03-19T08:13:55;12.40;99.90
11700;DHT22;5906;51.660;6.674;2023-03-19T08:16:22;12.50;99.90
11700;DHT22;5906;51.660;6.674;2023-03-19T08:18:49;12.60;99.90
11700;DHT22;5906;51.660;6.674;2023-03-19T08:21:18;12.70;99.90
11700;DHT22;5906;51.660;6.674;2023-03-19T08:23:46;12.70;99.90
11700;DHT22;5906;51.660;6.674;2023-03-19T08:26:13;12.80;99.90
11700;DHT22;5906;51.660;6.674;2023-03-19T08:28:40;13.00;99.90
11700;DHT22;5906;51.660;6.674;2023-03-19T08:31:09;13.10;99.90
11700;DHT22;5906;51.660;6.674;2023-03-19T08:33:37;13.20;99.90
11700;DHT22;5906;51.660;6.674;2023-03-19T08:36:12;13.40;99.90
11700;DHT22;5906;51.660;6.674;2023-03-19T08:38:40;13.40;99.90
11700;DHT22;5906;51.660;6.674;2023-03-19T08:41:08;13.30;99.90
11700;DHT22;5906;51.660;6.674;2023-03-19T08:43:36;13.30;99.90
11700;DHT22;5906;51.660;6.674;2023-03-19T08:46:04;13.20;99.90
11700;DHT22;5906;51.660;6.674;2023-03-19T08:48:32;13.20;99.90
11700;DHT22;5906;51.660;6.674;2023-03-19T08:51:01;13.10;99.90
11700;DHT22;5906;51.660;6.674;2023-03-19T08:53:30;13.10;99.90
11700;DHT22;5906;51.660;6.674;2023-03-19T08:56:03;13.20;99.90
11700;DHT22;5906;51.660;6.674;2023-03-19T08:58:31;13.30;99.90
11700;DHT22;5906;51.660;6.674;2023-03-19T09:01:09;13.40;99.90
11700;DHT22;5906;51.660;6.674;2023-03-19T09:03:39;13.60;99.90
11700;DHT22;5906;51.660;6.674;2023-03-19T09:06:08;13.70;99.90
11700;DHT22;5906;51.660;6.674;2023-03-19T09:08:36;13.80;99.90
11700;DHT22;5906;51.660;6.674;2023-03-19T09:11:05;13.90;99.90
11700;DHT22;5906;51.660;6.674;2023-03-19T09:13:32;13.80;99.90
11700;DHT22;5906;51.660;6.674;2023-03-19T09:15:59;13.80;99.90
11700;DHT22;5906;51.660;6.674;2023-03-19T09:18:27;13.80;99.90
11700;DHT22;5906;51.660;6.674;2023-03-19T09:20:54;13.90;99.90
11700;DHT22;5906;51.660;6.674;2023-03-19T09:23:22;14.00;99.90
11700;DHT22;5906;51.660;6.674;2023-03-19T09:25:49;14.10;99.90
11700;DHT22;5906;51.660;6.674;2023-03-19T09:28:16;14.10;99.90
11700;DHT22;5906;51.660;6.674;2023-03-19T09:30:48;14.10;99.90
11700;DHT22;5906;51.660;6.674;2023-03-19T09:33:16;14.20;99.90
11700;DHT22;5906;51.660;6.674;2023-03-19T09:35:51;14.40;99.90
11700;DHT22;5906;51.660;6.674;2023-03-19T09:38:20;14.50;99.90
11700;DHT22;5906;51.660;6.674;2023-03-19T09:40:58;14.60;99.90
11700;DHT22;5906;51.660;6.674;2023-03-19T09:46:22;14.80;99.90
11700;DHT22;5906;51.660;6.674;2023-03-19T09:49:11;14.70;99.90
11700;DHT22;5906;51.660;6.674;2023-03-19T09:54:56;14.60;99.90
11700;DHT22;5906;51.660;6.674;2023-03-19T09:57:24;14.60;99.90
11700;DHT22;5906;51.660;6.674;2023-03-19T09:59:52;14.60;99.90
11700;DHT22;5906;51.660;6.674;2023-03-19T10:02:40;14.60;99.90
11700;DHT22;5906;51.660;6.674;2023-03-19T10:10:33;14.40;99.90
11700;DHT22;5906;51.660;6.674;2023-03-19T10:16:05;14.20;99.90
11700;DHT22;5906;51.660;6.674;2023-03-19T10:18:40;14.20;99.90
11700;DHT22;5906;51.660;6.674;2023-03-19T10:21:15;14.20;99.90
11700;DHT22;5906;51.660;6.674;2023-03-19T10:23:57;14.20;99.90
11700;DHT22;5906;51.660;6.674;2023-03-19T10:26:32;14.20;99.90
11700;DHT22;5906;51.660;6.674;2023-03-19T10:29:11;14.30;99.90
11700;DHT22;5906;51.660;6.674;2023-03-19T10:34:32;14.10;99.90
11700;DHT22;5906;51.660;6.674;2023-03-19T10:37:23;14.10;99.90
11700;DHT22;5906;51.660;6.674;2023-03-19T10:39:55;14.10;99.90
11700;DHT22;5906;51.660;6.674;2023-03-19T10:42:45;14.00;99.90
11700;DHT22;5906;51.660;6.674;2023-03-19T10:45:30;13.90;99.90
11700;DHT22;5906;51.660;6.674;2023-03-19T10:47:59;13.90;99.90
11700;DHT22;5906;51.660;6.674;2023-03-19T10:51:05;14.00;99.90
11700;DHT22;5906;51.660;6.674;2023-03-19T10:53:36;14.10;99.90
11700;DHT22;5906;51.660;6.674;2023-03-19T10:58:35;14.50;99.90
11700;DHT22;5906;51.660;6.674;2023-03-19T11:01:08;14.90;99.90
11700;DHT22;5906;51.660;6.674;2023-03-19T11:03:55;15.30;99.90
11700;DHT22;5906;51.660;6.674;2023-03-19T11:12:31;15.30;99.90
11700;DHT22;5906;51.660;6.674;2023-03-19T11:14:59;15.30;99.90
11700;DHT22;5906;51.660;6.674;2023-03-19T11:22:41;15.30;99.90
11700;DHT22;5906;51.660;6.674;2023-03-19T11:25:24;15.30;99.90
11700;DHT22;5906;51.660;6.674;2023-03-19T11:30:37;15.40;99.90
11700;DHT22;5906;51.660;6.674;2023-03-19T11:33:17;15.40;99.90
11700;DHT22;5906;51.660;6.674;2023-03-19T11:35:49;15.60;99.90
11700;DHT22;5906;51.660;6.674;2023-03-19T11:44:25;16.30;99.90
11700;DHT22;5906;51.660;6.674;2023-03-19T11:47:03;16.60;99.90
11700;DHT22;5906;51.660;6.674;2023-03-19T11:53:00;17.00;99.90
11700;DHT22;5906;51.660;6.674;2023-03-19T11:55:47;16.90;99.90
11700;DHT22;5906;51.660;6.674;2023-03-19T12:00:50;17.40;99.90
11700;DHT22;5906;51.660;6.674;2023-03-19T12:06:32;17.50;99.90
11700;DHT22;5906;51.660;6.674;2023-03-19T12:11:35;17.30;99.90
11700;DHT22;5906;51.660;6.674;2023-03-19T12:25:44;17.90;99.90
11700;DHT22;5906;51.660;6.674;2023-03-19T12:28:23;18.10;99.90
11700;DHT22;5906;51.660;6.674;2023-03-19T12:34:45;18.20;99.90
11700;DHT22;5906;51.660;6.674;2023-03-19T12:40:16;18.30;99.90
11700;DHT22;5906;51.660;6.674;2023-03-19T12:42:48;18.20;99.90
11700;DHT22;5906;51.660;6.674;2023-03-19T12:45:31;18.20;99.90
11700;DHT22;5906;51.660;6.674;2023-03-19T12:48:23;18.20;99.90
11700;DHT22;5906;51.660;6.674;2023-03-19T12:50:55;18.30;99.90
11700;DHT22;5906;51.660;6.674;2023-03-19T12:56:11;18.40;99.90
11700;DHT22;5906;51.660;6.674;2023-03-19T12:59:07;18.40;99.90
11700;DHT22;5906;51.660;6.674;2023-03-19T13:01:49;18.20;99.90
11700;DHT22;5906;51.660;6.674;2023-03-19T13:04:23;18.10;99.90
11700;DHT22;5906;51.660;6.674;2023-03-19T13:07:12;17.90;99.90
11700;DHT22;5906;51.660;6.674;2023-03-19T13:09:55;17.80;99.90
11700;DHT22;5906;51.660;6.674;2023-03-19T13:12:26;17.80;99.90
11700;DHT22;5906;51.660;6.674;2023-03-19T13:14:59;17.90;99.90
11700;DHT22;5906;51.660;6.674;2023-03-19T13:17:53;18.10;99.90
11700;DHT22;5906;51.660;6.674;2023-03-19T13:23:01;18.30;99.90
11700;DHT22;5906;51.660;6.674;2023-03-19T13:25:41;18.30;99.90
11700;DHT22;5906;51.660;6.674;2023-03-19T13:28:10;18.30;99.90
11700;DHT22;5906;51.660;6.674;2023-03-19T13:30:37;18.20;99.90
11700;DHT22;5906;51.660;6.674;2023-03-19T13:33:12;18.10;99.90
11700;DHT22;5906;51.660;6.674;2023-03-19T13:35:43;18.20;99.90
11700;DHT22;5906;51.660;6.674;2023-03-19T13:40:49;18.50;99.90
11700;DHT22;5906;51.660;6.674;2023-03-19T13:59:28;18.70;99.90
11700;DHT22;5906;51.660;6.674;2023-03-19T14:01:56;18.50;99.90
11700;DHT22;5906;51.660;6.674;2023-03-19T14:04:24;18.40;99.90
11700;DHT22;5906;51.660;6.674;2023-03-19T14:06:55;18.30;99.90
11700;DHT22;5906;51.660;6.674;2023-03-19T14:09:40;18.30;99.90
11700;DHT22;5906;51.660;6.674;2023-03-19T14:14:56;18.50;99.90
11700;DHT22;5906;51.660;6.674;2023-03-19T14:17:56;18.40;97.00
11700;DHT22;5906;51.660;6.674;2023-03-19T14:20:31;18.30;97.90
11700;DHT22;5906;51.660;6.674;2023-03-19T14:28:33;17.60;99.90
11700;DHT22;5906;51.660;6.674;2023-03-19T14:31:02;17.50;99.90
11700;DHT22;5906;51.660;6.674;2023-03-19T14:33:49;17.40;99.90
11700;DHT22;5906;51.660;6.674;2023-03-19T14:36:19;17.40;99.90
11700;DHT22;5906;51.660;6.674;2023-03-19T14:39:31;17.60;99.90
11700;DHT22;5906;51.660;6.674;2023-03-19T14:41:58;17.40;99.90
11700;DHT22;5906;51.660;6.674;2023-03-19T14:49:01;17.30;99.90
11700;DHT22;5906;51.660;6.674;2023-03-19T14:51:21;17.30;99.90
11700;DHT22;5906;51.660;6.674;2023-03-19T14:56:46;17.10;99.90
11700;DHT22;5906;51.660;6.674;2023-03-19T14:59:13;17.10;99.90
11700;DHT22;5906;51.660;6.674;2023-03-19T15:01:48;17.10;99.90
11700;DHT22;5906;51.660;6.674;2023-03-19T15:04:18;17.10;99.90
11700;DHT22;5906;51.660;6.674;2023-03-19T15:06:53;17.10;99.90
11700;DHT22;5906;51.660;6.674;2023-03-19T15:09:30;17.00;99.90
11700;DHT22;5906;51.660;6.674;2023-03-19T15:17:39;17.20;99.90
11700;DHT22;5906;51.660;6.674;2023-03-19T15:20:21;17.30;99.90
11700;DHT22;5906;51.660;6.674;2023-03-19T15:22:59;17.10;99.90
11700;DHT22;5906;51.660;6.674;2023-03-19T15:25:26;17.00;99.90
11700;DHT22;5906;51.660;6.674;2023-03-19T15:28:12;16.90;99.90
11700;DHT22;5906;51.660;6.674;2023-03-19T15:30:40;16.90;99.90
11700;DHT22;5906;51.660;6.674;2023-03-19T15:33:32;16.90;99.90
11700;DHT22;5906;51.660;6.674;2023-03-19T15:36:23;17.00;99.90
11700;DHT22;5906;51.660;6.674;2023-03-19T15:38:55;17.00;99.90
11700;DHT22;5906;51.660;6.674;2023-03-19T15:41:24;17.10;99.90
11700;DHT22;5906;51.660;6.674;2023-03-19T15:43:53;17.10;99.90
11700;DHT22;5906;51.660;6.674;2023-03-19T15:46:25;17.10;99.90
11700;DHT22;5906;51.660;6.674;2023-03-19T15:48:57;17.00;99.90
11700;DHT22;5906;51.660;6.674;2023-03-19T15:51:28;16.80;99.90
11700;DHT22;5906;51.660;6.674;2023-03-19T15:53:57;16.70;99.90
11700;DHT22;5906;51.660;6.674;2023-03-19T15:56:24;16.60;99.90
11700;DHT22;5906;51.660;6.674;2023-03-19T15:58:55;16.40;99.90
11700;DHT22;5906;51.660;6.674;2023-03-19T16:01:23;16.40;99.90
11700;DHT22;5906;51.660;6.674;2023-03-19T16:03:52;16.50;99.90
11700;DHT22;5906;51.660;6.674;2023-03-19T16:06:29;16.40;99.90
11700;DHT22;5906;51.660;6.674;2023-03-19T16:11:44;16.60;99.90
11700;DHT22;5906;51.660;6.674;2023-03-19T16:16:46;16.80;99.90
11700;DHT22;5906;51.660;6.674;2023-03-19T16:19:34;16.80;99.90
11700;DHT22;5906;51.660;6.674;2023-03-19T16:22:11;16.80;99.90
11700;DHT22;5906;51.660;6.674;2023-03-19T16:24:44;16.90;99.90
11700;DHT22;5906;51.660;6.674;2023-03-19T16:27:18;16.80;99.90
11700;DHT22;5906;51.660;6.674;2023-03-19T16:29:47;16.70;99.90
11700;DHT22;5906;51.660;6.674;2023-03-19T16:34:51;16.60;99.90
11700;DHT22;5906;51.660;6.674;2023-03-19T16:42:53;16.30;99.90
11700;DHT22;5906;51.660;6.674;2023-03-19T16:45:30;16.30;99.90
11700;DHT22;5906;51.660;6.674;2023-03-19T16:47:59;16.10;99.90
11700;DHT22;5906;51.660;6.674;2023-03-19T16:50:34;16.10;99.90
11700;DHT22;5906;51.660;6.674;2023-03-19T16:53:04;16.10;99.90
11700;DHT22;5906;51.660;6.674;2023-03-19T16:55:34;16.10;99.90
11700;DHT22;5906;51.660;6.674;2023-03-19T16:58:14;15.90;99.90
11700;DHT22;5906;51.660;6.674;2023-03-19T17:00:42;15.80;99.90
11700;DHT22;5906;51.660;6.674;2023-03-19T17:03:15;15.60;99.90
11700;DHT22;5906;51.660;6.674;2023-03-19T17:05:44;15.50;99.90
11700;DHT22;5906;51.660;6.674;2023-03-19T17:08:11;15.50;99.90
11700;DHT22;5906;51.660;6.674;2023-03-19T17:10:42;15.50;99.90
11700;DHT22;5906;51.660;6.674;2023-03-19T17:13:22;15.40;99.90
11700;DHT22;5906;51.660;6.674;2023-03-19T17:16:06;15.30;99.90
11700;DHT22;5906;51.660;6.674;2023-03-19T17:18:35;15.20;99.90
11700;DHT22;5906;51.660;6.674;2023-03-19T17:21:15;15.20;99.90
11700;DHT22;5906;51.660;6.674;2023-03-19T17:23:43;15.10;99.90
11700;DHT22;5906;51.660;6.674;2023-03-19T17:26:25;15.00;99.90
11700;DHT22;5906;51.660;6.674;2023-03-19T17:28:54;14.90;99.90
11700;DHT22;5906;51.660;6.674;2023-03-19T17:31:28;14.90;99.90
11700;DHT22;5906;51.660;6.674;2023-03-19T17:34:04;14.90;99.90
11700;DHT22;5906;51.660;6.674;2023-03-19T17:36:32;14.90;99.90
11700;DHT22;5906;51.660;6.674;2023-03-19T17:38:59;14.70;99.90
11700;DHT22;5906;51.660;6.674;2023-03-19T17:41:27;14.50;99.90
11700;DHT22;5906;51.660;6.674;2023-03-19T17:43:55;14.40;99.90
11700;DHT22;5906;51.660;6.674;2023-03-19T17:46:24;14.40;99.90
11700;DHT22;5906;51.660;6.674;2023-03-19T17:48:53;14.40;99.90
11700;DHT22;5906;51.660;6.674;2023-03-19T17:51:24;14.20;99.90
11700;DHT22;5906;51.660;6.674;2023-03-19T17:53:54;14.10;99.90
11700;DHT22;5906;51.660;6.674;2023-03-19T17:56:24;14.10;99.90
11700;DHT22;5906;51.660;6.674;2023-03-19T17:58:52;14.10;99.90
11700;DHT22;5906;51.660;6.674;2023-03-19T18:01:22;14.00;99.90
11700;DHT22;5906;51.660;6.674;2023-03-19T18:03:50;14.00;99.90
11700;DHT22;5906;51.660;6.674;2023-03-19T18:06:22;13.90;99.90
11700;DHT22;5906;51.660;6.674;2023-03-19T18:08:49;13.80;99.90
11700;DHT22;5906;51.660;6.674;2023-03-19T18:11:17;13.80;99.90
11700;DHT22;5906;51.660;6.674;2023-03-19T18:13:44;13.80;99.90
11700;DHT22;5906;51.660;6.674;2023-03-19T18:16:24;13.80;99.90
11700;DHT22;5906;51.660;6.674;2023-03-19T18:18:51;13.80;99.90
11700;DHT22;5906;51.660;6.674;2023-03-19T18:21:19;13.70;99.90